createdAt,value
2023-03-12T00:01:14.809Z,3.23
2023-03-12T00:03:42.794Z,4.57
2023-03-12T00:06:11.255Z,4.00
2023-03-12T00:08:38.897Z,4.07
2023-03-12T00:11:09.330Z,6.50
2023-03-12T00:13:36.914Z,4.00
2023-03-12T00:16:06.749Z,3.23
2023-03-12T00:18:34.349Z,4.10
2023-03-12T00:21:02.133Z,9.23
2023-03-12T00:23:30.144Z,4.90
2023-03-12T00:26:01.919Z,6.20
2023-03-12T00:28:31.277Z,3.30
2023-03-12T00:30:59.267Z,3.90
2023-03-12T00:33:27.239Z,3.10
2023-03-12T00:35:55.133Z,5.57
2023-03-12T00:38:23.199Z,4.70
2023-03-12T00:40:50.656Z,3.30
2023-03-12T00:43:18.271Z,7.17
2023-03-12T00:45:47.231Z,3.73
2023-03-12T00:48:14.834Z,2.87
2023-03-12T00:50:42.363Z,3.47
2023-03-12T00:53:09.840Z,3.93
2023-03-12T00:55:37.515Z,2.97
2023-03-12T00:58:05.117Z,3.17
2023-03-12T01:00:32.706Z,3.20
2023-03-12T01:03:01.568Z,3.63
2023-03-12T01:05:29.745Z,2.93
2023-03-12T01:07:57.316Z,5.97
2023-03-12T01:10:24.902Z,4.50
2023-03-12T01:12:52.405Z,4.50
2023-03-12T01:15:20.353Z,2.90
2023-03-12T01:17:47.988Z,4.20
2023-03-12T01:20:16.970Z,5.60
2023-03-12T01:22:45.022Z,2.77
2023-03-12T01:25:13.203Z,3.03
2023-03-12T01:27:40.743Z,2.00
2023-03-12T01:30:09.617Z,8.70
2023-03-12T01:32:37.415Z,5.93
2023-03-12T01:35:06.221Z,4.70
2023-03-12T01:37:35.815Z,4.80
2023-03-12T01:40:03.728Z,3.10
2023-03-12T01:42:31.494Z,2.40
2023-03-12T01:45:00.817Z,3.00
2023-03-12T01:47:32.684Z,2.50
2023-03-12T01:50:04.447Z,3.70
2023-03-12T01:52:37.295Z,3.00
2023-03-12T01:55:10.361Z,2.77
2023-03-12T01:57:44.591Z,2.70
2023-03-12T02:00:17.039Z,9.30
2023-03-12T02:02:45.539Z,1.97
2023-03-12T02:05:23.390Z,4.90
2023-03-12T02:07:52.488Z,2.90
2023-03-12T02:10:21.380Z,5.33
2023-03-12T02:12:49.156Z,3.80
2023-03-12T02:15:16.911Z,2.43
2023-03-12T02:17:44.713Z,4.70
2023-03-12T02:20:17.074Z,7.47
2023-03-12T02:22:50.338Z,3.10
2023-03-12T02:25:30.706Z,3.63
2023-03-12T02:28:01.093Z,9.63
2023-03-12T02:30:31.054Z,5.07
2023-03-12T02:33:02.386Z,3.17
2023-03-12T02:35:30.022Z,2.87
2023-03-12T02:37:58.120Z,3.53
2023-03-12T02:40:32.439Z,2.33
2023-03-12T02:43:01.526Z,2.77
2023-03-12T02:45:29.813Z,2.20
2023-03-12T02:47:57.381Z,2.60
2023-03-12T02:50:24.892Z,5.40
2023-03-12T02:52:52.426Z,2.70
2023-03-12T02:55:20.892Z,3.87
2023-03-12T02:57:49.788Z,2.73
2023-03-12T03:00:18.443Z,2.50
2023-03-12T03:02:50.537Z,3.73
2023-03-12T03:05:18.284Z,2.57
2023-03-12T03:07:45.791Z,1.97
2023-03-12T03:10:15.080Z,4.57
2023-03-12T03:12:42.762Z,2.03
2023-03-12T03:15:12.884Z,1.97
2023-03-12T03:17:40.982Z,3.90
2023-03-12T03:20:11.403Z,2.50
2023-03-12T03:22:40.023Z,2.70
2023-03-12T03:25:09.234Z,4.07
2023-03-12T03:27:36.861Z,3.33
2023-03-12T03:30:05.789Z,2.90
2023-03-12T03:32:39.378Z,2.80
2023-03-12T03:35:07.890Z,2.37
2023-03-12T03:37:35.530Z,4.23
2023-03-12T03:40:03.484Z,2.43
2023-03-12T03:42:31.020Z,2.33
2023-03-12T03:44:58.841Z,2.30
2023-03-12T03:47:26.369Z,3.70
2023-03-12T03:49:55.391Z,3.90
2023-03-12T03:52:22.827Z,2.10
2023-03-12T03:54:50.494Z,6.00
2023-03-12T03:57:18.062Z,3.50
2023-03-12T03:59:45.649Z,4.23
2023-03-12T04:02:13.321Z,2.73
2023-03-12T04:04:41.947Z,2.80
2023-03-12T04:07:11.611Z,2.07
2023-03-12T04:09:39.623Z,1.83
2023-03-12T04:12:07.865Z,3.27
2023-03-12T04:14:40.751Z,3.50
2023-03-12T04:17:12.449Z,2.30
2023-03-12T04:19:40.211Z,3.00
2023-03-12T04:22:07.757Z,2.77
2023-03-12T04:24:36.732Z,11.10
2023-03-12T04:27:04.898Z,3.03
2023-03-12T04:29:34.292Z,2.40
2023-03-12T04:32:02.871Z,3.07
2023-03-12T04:34:30.419Z,4.00
2023-03-12T04:37:04.305Z,3.53
2023-03-12T04:39:32.083Z,1.87
2023-03-12T04:42:00.968Z,2.00
2023-03-12T04:44:28.458Z,3.70
2023-03-12T04:46:56.026Z,1.73
2023-03-12T04:49:26.241Z,2.37
2023-03-12T04:51:55.743Z,3.67
2023-03-12T04:54:23.331Z,2.40
2023-03-12T04:56:52.011Z,3.97
2023-03-12T04:59:23.270Z,2.53
2023-03-12T05:01:51.757Z,2.20
2023-03-12T05:04:24.076Z,2.57
2023-03-12T05:06:51.996Z,2.07
2023-03-12T05:09:19.687Z,4.90
2023-03-12T05:11:47.423Z,2.27
2023-03-12T05:14:18.261Z,2.03
2023-03-12T05:16:50.259Z,5.33
2023-03-12T05:19:17.829Z,2.60
2023-03-12T05:21:45.550Z,3.23
2023-03-12T05:24:13.424Z,2.70
2023-03-12T05:26:41.329Z,2.07
2023-03-12T05:29:16.096Z,2.20
2023-03-12T05:31:44.089Z,2.00
2023-03-12T05:34:14.572Z,2.70
2023-03-12T05:36:44.764Z,2.53
2023-03-12T05:39:14.263Z,4.57
2023-03-12T05:41:41.749Z,2.33
2023-03-12T05:44:16.029Z,2.50
2023-03-12T05:46:46.354Z,2.23
2023-03-12T05:49:15.214Z,4.90
2023-03-12T05:51:43.339Z,2.03
2023-03-12T05:54:11.617Z,2.30
2023-03-12T05:56:39.179Z,3.03
2023-03-12T05:59:07.906Z,3.90
2023-03-12T06:01:35.481Z,2.70
2023-03-12T06:04:04.948Z,2.03
2023-03-12T06:06:35.665Z,4.87
2023-03-12T06:09:04.758Z,2.47
2023-03-12T06:11:33.690Z,7.20
2023-03-12T06:14:01.495Z,2.40
2023-03-12T06:16:30.076Z,3.07
2023-03-12T06:19:00.288Z,7.23
2023-03-12T06:21:31.322Z,5.23
2023-03-12T06:24:03.156Z,2.33
2023-03-12T06:26:38.217Z,2.50
2023-03-12T06:29:05.924Z,2.30
2023-03-12T06:31:33.734Z,2.40
2023-03-12T06:34:01.747Z,3.77
2023-03-12T06:36:29.460Z,3.43
2023-03-12T06:38:57.383Z,2.53
2023-03-12T06:41:26.436Z,3.10
2023-03-12T06:43:53.933Z,3.60
2023-03-12T06:46:22.367Z,8.00
2023-03-12T06:48:49.950Z,2.80
2023-03-12T06:51:18.118Z,4.30
2023-03-12T06:53:46.498Z,2.97
2023-03-12T06:56:14.679Z,2.40
2023-03-12T06:58:43.483Z,6.03
2023-03-12T07:01:11.100Z,2.90
2023-03-12T07:03:38.660Z,3.00
2023-03-12T07:06:13.408Z,8.40
2023-03-12T07:08:41.028Z,3.27
2023-03-12T07:11:08.513Z,6.00
2023-03-12T07:13:36.060Z,5.80
2023-03-12T07:16:05.907Z,4.63
2023-03-12T07:18:33.466Z,2.93
2023-03-12T07:21:01.097Z,4.67
2023-03-12T07:23:28.813Z,5.57
2023-03-12T07:25:56.357Z,4.57
2023-03-12T07:28:23.898Z,3.37
2023-03-12T07:30:51.413Z,3.70
2023-03-12T07:33:22.302Z,9.10
2023-03-12T07:35:51.910Z,2.37
2023-03-12T07:38:19.938Z,4.67
2023-03-12T07:40:51.764Z,5.87
2023-03-12T07:43:21.234Z,4.90
2023-03-12T07:45:50.327Z,2.83
2023-03-12T07:48:19.679Z,2.30
2023-03-12T07:50:48.926Z,3.63
2023-03-12T07:53:17.028Z,5.23
2023-03-12T07:55:46.614Z,7.30
2023-03-12T07:58:15.479Z,10.10
2023-03-12T08:00:43.094Z,9.17
2023-03-12T08:03:10.868Z,4.03
2023-03-12T08:05:38.728Z,5.90
2023-03-12T08:08:08.657Z,8.60
2023-03-12T08:10:37.381Z,3.90
2023-03-12T08:13:04.965Z,7.67
2023-03-12T08:15:33.804Z,5.00
2023-03-12T08:18:02.732Z,12.17
2023-03-12T08:20:31.636Z,6.47
2023-03-12T08:22:59.223Z,3.10
2023-03-12T08:25:28.527Z,11.43
2023-03-12T08:27:55.971Z,8.27
2023-03-12T08:30:23.673Z,10.37
2023-03-12T08:32:51.284Z,4.47
2023-03-12T08:35:18.850Z,8.00
2023-03-12T08:37:46.378Z,8.27
2023-03-12T08:40:14.297Z,8.27
2023-03-12T08:42:45.100Z,7.33
2023-03-12T08:45:14.214Z,17.00
2023-03-12T08:47:42.117Z,8.90
2023-03-12T08:50:12.020Z,7.10
2023-03-12T08:52:40.322Z,9.23
2023-03-12T08:55:08.470Z,8.00
2023-03-12T08:57:36.011Z,7.67
2023-03-12T09:00:11.202Z,7.73
2023-03-12T09:02:38.942Z,8.73
2023-03-12T09:05:07.507Z,4.93
2023-03-12T09:07:35.192Z,4.33
2023-03-12T09:10:02.648Z,8.97
2023-03-12T09:12:30.279Z,14.90
2023-03-12T09:15:03.357Z,4.00
2023-03-12T09:17:32.599Z,8.00
2023-03-12T09:20:00.248Z,5.60
2023-03-12T09:22:29.690Z,5.77
2023-03-12T09:24:57.277Z,4.17
2023-03-12T09:27:24.792Z,5.70
2023-03-12T09:29:59.970Z,8.53
2023-03-12T09:32:28.383Z,5.63
2023-03-12T09:34:57.339Z,4.73
2023-03-12T09:37:24.874Z,4.33
2023-03-12T09:39:52.699Z,5.93
2023-03-12T09:42:24.824Z,4.70
2023-03-12T09:44:54.890Z,5.50
2023-03-12T09:47:27.884Z,2.77
2023-03-12T09:50:00.659Z,3.33
2023-03-12T09:52:33.583Z,3.60
2023-03-12T09:55:08.134Z,3.17
2023-03-12T09:57:35.738Z,2.70
2023-03-12T10:00:06.620Z,4.80
2023-03-12T10:02:54.471Z,15.53
2023-03-12T10:05:30.190Z,3.00
2023-03-12T10:08:10.555Z,2.63
2023-03-12T10:10:55.893Z,2.37
2023-03-12T10:13:36.307Z,3.17
2023-03-12T10:16:14.432Z,3.60
2023-03-12T10:18:56.936Z,5.63
2023-03-12T10:21:34.016Z,12.57
2023-03-12T10:24:25.388Z,4.60
2023-03-12T10:26:56.098Z,9.90
2023-03-12T10:29:27.539Z,5.67
2023-03-12T10:32:00.554Z,2.33
2023-03-12T10:34:34.310Z,1.63
2023-03-12T10:37:10.785Z,3.73
2023-03-12T10:39:38.580Z,3.90
2023-03-12T10:42:15.496Z,3.30
2023-03-12T10:44:42.928Z,1.70
2023-03-12T10:47:26.196Z,4.23
2023-03-12T10:49:53.854Z,2.53
2023-03-12T10:52:24.003Z,2.47
2023-03-12T10:54:53.830Z,5.90
2023-03-12T10:57:21.818Z,8.50
2023-03-12T10:59:50.846Z,2.73
2023-03-12T11:02:34.376Z,3.30
2023-03-12T11:05:03.117Z,4.83
2023-03-12T11:07:34.074Z,3.03
2023-03-12T11:10:19.064Z,4.33
2023-03-12T11:12:56.381Z,1.87
2023-03-12T11:15:25.733Z,3.93
2023-03-12T11:17:54.726Z,4.73
2023-03-12T11:20:27.795Z,6.40
2023-03-12T11:22:56.958Z,3.60
2023-03-12T11:25:53.093Z,5.13
2023-03-12T11:28:25.724Z,2.70
2023-03-12T11:30:55.215Z,2.57
2023-03-12T11:33:22.768Z,2.73
2023-03-12T11:36:04.783Z,2.30
2023-03-12T11:38:38.782Z,6.53
2023-03-12T11:41:18.833Z,5.47
2023-03-12T11:44:04.481Z,2.10
2023-03-12T11:46:43.871Z,3.27
2023-03-12T11:49:26.860Z,2.50
2023-03-12T11:51:58.018Z,4.93
2023-03-12T11:54:42.518Z,3.50
2023-03-12T11:57:18.878Z,2.90
2023-03-12T12:00:02.501Z,3.53
2023-03-12T12:03:00.824Z,7.10
2023-03-12T12:05:35.554Z,5.40
2023-03-12T12:08:26.501Z,9.30
2023-03-12T12:11:04.270Z,3.60
2023-03-12T12:13:39.169Z,6.43
2023-03-12T12:16:24.569Z,3.90
2023-03-12T12:19:04.629Z,3.73
2023-03-12T12:21:49.976Z,4.37
2023-03-12T12:24:32.881Z,3.63
2023-03-12T12:27:15.129Z,3.83
2023-03-12T12:30:05.537Z,4.17
2023-03-12T12:32:48.352Z,3.17
2023-03-12T12:35:26.958Z,4.53
2023-03-12T12:37:59.365Z,6.77
2023-03-12T12:40:32.027Z,2.80
2023-03-12T12:43:07.440Z,4.40
2023-03-12T12:45:41.441Z,4.10
2023-03-12T12:48:15.353Z,3.23
2023-03-12T12:50:44.219Z,3.47
2023-03-12T12:53:22.013Z,4.20
2023-03-12T12:55:59.698Z,8.13
2023-03-12T12:58:43.611Z,4.30
2023-03-12T13:01:11.669Z,3.67
2023-03-12T13:03:39.752Z,4.83
2023-03-12T13:06:08.411Z,3.97
2023-03-12T13:08:56.566Z,3.30
2023-03-12T13:11:30.001Z,3.90
2023-03-12T13:14:37.998Z,4.33
2023-03-12T13:17:21.635Z,3.43
2023-03-12T13:20:00.877Z,4.80
2023-03-12T13:22:42.380Z,5.03
2023-03-12T13:25:25.302Z,5.33
2023-03-12T13:27:59.427Z,7.00
2023-03-12T13:30:51.719Z,4.57
2023-03-12T13:33:22.095Z,3.83
2023-03-12T13:36:07.194Z,9.80
2023-03-12T13:38:38.224Z,4.63
2023-03-12T13:41:07.583Z,5.70
2023-03-12T13:43:49.587Z,4.00
2023-03-12T13:46:37.003Z,3.80
2023-03-12T13:49:11.258Z,3.90
2023-03-12T13:51:45.598Z,4.90
2023-03-12T13:54:19.513Z,4.20
2023-03-12T13:56:57.423Z,3.80
2023-03-12T13:59:26.999Z,4.73
2023-03-12T14:02:01.202Z,11.93
2023-03-12T14:04:34.940Z,4.87
2023-03-12T14:07:28.170Z,4.13
2023-03-12T14:10:10.048Z,4.87
2023-03-12T14:13:13.604Z,5.87
2023-03-12T14:15:49.094Z,7.20
2023-03-12T14:18:23.244Z,5.13
2023-03-12T14:20:55.648Z,5.03
2023-03-12T14:23:27.777Z,4.80
2023-03-12T14:26:02.325Z,8.67
2023-03-12T14:28:33.824Z,6.87
2023-03-12T14:31:03.794Z,5.37
2023-03-12T14:33:37.352Z,5.03
2023-03-12T14:36:10.278Z,4.60
2023-03-12T14:38:41.295Z,4.37
2023-03-12T14:41:14.578Z,4.20
2023-03-12T14:43:43.809Z,4.53
2023-03-12T14:46:16.863Z,5.90
2023-03-12T14:48:51.755Z,5.80
2023-03-12T14:51:24.984Z,4.67
2023-03-12T14:53:53.453Z,5.37
2023-03-12T14:56:29.159Z,4.53
2023-03-12T14:58:57.817Z,4.77
2023-03-12T15:01:28.313Z,5.87
2023-03-12T15:04:01.142Z,6.60
2023-03-12T15:06:33.510Z,5.37
2023-03-12T15:09:04.460Z,6.13
2023-03-12T15:11:34.049Z,5.90
2023-03-12T15:14:04.431Z,7.93
2023-03-12T15:16:32.104Z,6.93
2023-03-12T15:19:02.481Z,5.20
2023-03-12T15:21:30.255Z,6.67
2023-03-12T15:23:57.999Z,7.33
2023-03-12T15:26:31.878Z,5.10
2023-03-12T15:29:00.999Z,5.83
2023-03-12T15:31:41.107Z,4.27
2023-03-12T15:34:12.764Z,3.87
2023-03-12T15:36:51.513Z,6.00
2023-03-12T15:39:26.914Z,5.43
2023-03-12T15:41:56.146Z,5.87
2023-03-12T15:44:25.698Z,3.73
2023-03-12T15:46:56.107Z,4.03
2023-03-12T15:49:29.034Z,6.27
2023-03-12T15:52:03.164Z,3.70
2023-03-12T15:54:31.366Z,4.93
2023-03-12T15:57:22.634Z,5.20
2023-03-12T16:00:18.409Z,5.13
2023-03-12T16:02:50.334Z,7.60
2023-03-12T16:05:20.270Z,5.37
2023-03-12T16:07:48.213Z,6.30
2023-03-12T16:10:18.871Z,4.73
2023-03-12T16:12:48.088Z,5.97
2023-03-12T16:15:52.764Z,4.77
2023-03-12T16:18:22.158Z,6.80
2023-03-12T16:20:53.338Z,6.43
2023-03-12T16:23:20.960Z,8.50
2023-03-12T16:25:51.451Z,8.00
2023-03-12T16:28:22.309Z,7.90
2023-03-12T16:30:50.593Z,6.63
2023-03-12T16:33:19.902Z,8.23
2023-03-12T16:35:48.032Z,12.63
2023-03-12T16:38:17.055Z,7.20
2023-03-12T16:40:48.097Z,10.20
2023-03-12T16:43:18.827Z,9.87
2023-03-12T16:45:48.087Z,7.73
2023-03-12T16:48:18.602Z,12.27
2023-03-12T16:50:48.983Z,9.90
2023-03-12T16:53:18.168Z,7.97
2023-03-12T16:55:49.309Z,13.03
2023-03-12T16:58:19.200Z,12.87
2023-03-12T17:00:48.053Z,16.80
2023-03-12T17:03:22.590Z,15.33
2023-03-12T17:05:50.083Z,15.60
2023-03-12T17:08:18.913Z,12.10
2023-03-12T17:10:46.613Z,10.87
2023-03-12T17:13:19.879Z,15.87
2023-03-12T17:15:48.158Z,14.57
2023-03-12T17:18:16.222Z,15.03
2023-03-12T17:20:43.856Z,15.40
2023-03-12T17:23:11.743Z,11.10
2023-03-12T17:25:42.947Z,15.13
2023-03-12T17:28:10.946Z,12.57
2023-03-12T17:30:39.465Z,12.60
2023-03-12T17:33:12.656Z,13.37
2023-03-12T17:35:43.558Z,11.40
2023-03-12T17:38:12.131Z,15.00
2023-03-12T17:40:41.898Z,11.20
2023-03-12T17:43:09.821Z,11.27
2023-03-12T17:45:37.595Z,13.70
2023-03-12T17:48:05.476Z,15.17
2023-03-12T17:50:32.988Z,11.20
2023-03-12T17:53:00.479Z,12.10
2023-03-12T17:55:28.092Z,14.00
2023-03-12T17:57:56.949Z,21.37
2023-03-12T18:00:24.646Z,20.47
2023-03-12T18:02:52.209Z,13.43
2023-03-12T18:05:19.945Z,19.90
2023-03-12T18:07:48.468Z,16.30
2023-03-12T18:10:16.042Z,14.10
2023-03-12T18:12:43.817Z,18.37
2023-03-12T18:15:19.608Z,18.30
2023-03-12T18:17:50.420Z,19.83
2023-03-12T18:20:28.763Z,26.60
2023-03-12T18:23:03.508Z,23.83
2023-03-12T18:25:31.359Z,20.00
2023-03-12T18:27:58.844Z,25.40
2023-03-12T18:30:28.208Z,23.20
2023-03-12T18:32:55.989Z,23.57
2023-03-12T18:35:28.534Z,22.53
2023-03-12T18:37:56.226Z,28.43
2023-03-12T18:40:24.383Z,20.20
2023-03-12T18:42:51.953Z,16.10
2023-03-12T18:45:19.520Z,21.13
2023-03-12T18:47:50.352Z,26.63
2023-03-12T18:50:18.773Z,28.50
2023-03-12T18:52:46.242Z,29.53
2023-03-12T18:55:15.370Z,27.37
2023-03-12T18:57:43.219Z,29.10
2023-03-12T19:00:14.913Z,30.27
2023-03-12T19:02:42.976Z,22.60
2023-03-12T19:05:12.292Z,38.17
2023-03-12T19:07:40.289Z,25.10
2023-03-12T19:10:09.508Z,25.97
2023-03-12T19:12:50.776Z,25.40
2023-03-12T19:15:19.829Z,22.80
2023-03-12T19:17:48.266Z,30.20
2023-03-12T19:20:17.367Z,26.57
2023-03-12T19:22:44.988Z,27.17
2023-03-12T19:25:12.923Z,36.07
2023-03-12T19:27:40.448Z,39.00
2023-03-12T19:30:09.544Z,34.30
2023-03-12T19:32:43.806Z,37.43
2023-03-12T19:35:13.513Z,25.50
2023-03-12T19:37:42.462Z,36.20
2023-03-12T19:40:13.161Z,32.80
2023-03-12T19:42:40.676Z,29.43
2023-03-12T19:45:08.954Z,22.23
2023-03-12T19:47:36.444Z,30.70
2023-03-12T19:50:04.317Z,28.20
2023-03-12T19:52:58.518Z,27.83
2023-03-12T19:55:26.302Z,41.33
2023-03-12T19:57:54.228Z,38.23
2023-03-12T20:00:22.275Z,19.77
2023-03-12T20:02:49.831Z,24.77
2023-03-12T20:05:17.729Z,19.60
2023-03-12T20:07:46.663Z,18.27
2023-03-12T20:10:16.177Z,28.13
2023-03-12T20:12:43.874Z,34.10
2023-03-12T20:15:11.643Z,19.90
2023-03-12T20:17:39.244Z,22.90
2023-03-12T20:20:09.139Z,16.87
2023-03-12T20:22:36.898Z,18.13
2023-03-12T20:25:05.092Z,24.73
2023-03-12T20:27:34.997Z,24.83
2023-03-12T20:30:03.626Z,21.20
2023-03-12T20:32:31.189Z,23.57
2023-03-12T20:34:58.967Z,36.43
2023-03-12T20:37:26.447Z,15.00
2023-03-12T20:39:54.056Z,37.97
2023-03-12T20:42:21.534Z,25.67
2023-03-12T20:44:50.332Z,19.87
2023-03-12T20:47:18.070Z,27.07
2023-03-12T20:49:45.600Z,22.83
2023-03-12T20:52:13.279Z,15.90
2023-03-12T20:54:40.745Z,19.30
2023-03-12T20:57:08.251Z,20.47
2023-03-12T20:59:35.900Z,26.40
2023-03-12T21:02:04.791Z,19.50
2023-03-12T21:04:32.351Z,35.23
2023-03-12T21:06:59.852Z,22.23
2023-03-12T21:09:27.390Z,32.93
2023-03-12T21:11:54.828Z,20.13
2023-03-12T21:14:22.401Z,26.17
2023-03-12T21:16:54.283Z,26.67
2023-03-12T21:19:23.564Z,22.63
2023-03-12T21:21:52.989Z,23.27
2023-03-12T21:24:20.799Z,21.10
2023-03-12T21:26:48.533Z,29.03
2023-03-12T21:29:16.280Z,27.40
2023-03-12T21:31:43.841Z,13.57
2023-03-12T21:34:11.640Z,29.43
2023-03-12T21:36:40.610Z,24.00
2023-03-12T21:39:08.251Z,28.20
2023-03-12T21:41:35.771Z,32.07
2023-03-12T21:44:03.394Z,42.53
2023-03-12T21:46:31.190Z,24.23
2023-03-12T21:48:59.505Z,24.60
2023-03-12T21:51:27.156Z,27.90
2023-03-12T21:53:57.090Z,20.53
2023-03-12T21:56:26.344Z,26.57
2023-03-12T21:58:53.911Z,20.10
2023-03-12T22:01:25.252Z,33.27
2023-03-12T22:03:53.157Z,31.77
2023-03-12T22:06:21.501Z,34.03
2023-03-12T22:08:50.017Z,28.83
2023-03-12T22:11:19.280Z,24.83
2023-03-12T22:13:46.780Z,31.23
2023-03-12T22:16:15.210Z,26.77
2023-03-12T22:18:44.894Z,33.87
2023-03-12T22:21:15.726Z,51.27
2023-03-12T22:23:43.882Z,21.40
2023-03-12T22:26:11.540Z,26.20
2023-03-12T22:28:40.762Z,33.37
2023-03-12T22:31:09.924Z,21.50
2023-03-12T22:33:37.872Z,32.00
2023-03-12T22:36:07.569Z,20.40
2023-03-12T22:38:36.541Z,18.00
2023-03-12T22:41:15.127Z,28.63
2023-03-12T22:43:46.899Z,15.97
2023-03-12T22:46:16.382Z,32.90
2023-03-12T22:48:44.007Z,21.67
2023-03-12T22:51:12.078Z,24.47
2023-03-12T22:53:40.370Z,24.60
2023-03-12T22:56:10.272Z,21.57
2023-03-12T22:58:38.097Z,19.53
2023-03-12T23:01:09.013Z,17.47
2023-03-12T23:03:38.244Z,31.43
2023-03-12T23:06:14.967Z,19.00
2023-03-12T23:08:43.298Z,18.47
2023-03-12T23:11:12.370Z,24.97
2023-03-12T23:13:42.508Z,29.17
2023-03-12T23:16:13.816Z,18.43
2023-03-12T23:18:42.807Z,17.13
2023-03-12T23:21:13.497Z,28.27
2023-03-12T23:23:43.892Z,18.57
2023-03-12T23:26:13.984Z,24.07
2023-03-12T23:28:41.759Z,28.90
2023-03-12T23:31:11.595Z,16.27
2023-03-12T23:33:39.540Z,20.63
2023-03-12T23:36:09.365Z,21.13
2023-03-12T23:38:37.667Z,14.33
2023-03-12T23:41:08.900Z,32.33
2023-03-12T23:43:36.390Z,18.67
2023-03-12T23:46:05.473Z,24.33
2023-03-12T23:48:36.384Z,20.17
2023-03-12T23:51:06.182Z,24.20
2023-03-12T23:53:37.598Z,15.40
2023-03-12T23:56:07.459Z,12.03
2023-03-12T23:58:35.711Z,16.10
